createdAt,value
2022-09-21T00:01:08.241Z,7.07
2022-09-21T00:03:35.132Z,8.33
2022-09-21T00:06:05.412Z,7.73
2022-09-21T00:08:32.010Z,8.83
2022-09-21T00:10:59.162Z,6.97
2022-09-21T00:13:27.436Z,8.27
2022-09-21T00:15:56.966Z,7.93
2022-09-21T00:18:23.687Z,6.80
2022-09-21T00:20:50.195Z,7.97
2022-09-21T00:23:16.621Z,6.63
2022-09-21T00:25:43.064Z,7.23
2022-09-21T00:28:09.501Z,10.57
2022-09-21T00:30:35.966Z,10.33
2022-09-21T00:33:02.598Z,6.70
2022-09-21T00:35:29.040Z,7.77
2022-09-21T00:37:55.534Z,7.43
2022-09-21T00:40:21.999Z,5.97
2022-09-21T00:42:48.532Z,6.67
2022-09-21T00:45:21.269Z,5.87
2022-09-21T00:47:48.715Z,6.80
2022-09-21T00:50:17.687Z,6.83
2022-09-21T00:52:45.107Z,7.63
2022-09-21T00:55:14.732Z,9.57
2022-09-21T00:57:41.320Z,7.33
2022-09-21T01:00:11.203Z,11.10
2022-09-21T01:02:37.911Z,8.40
2022-09-21T01:05:07.794Z,8.00
2022-09-21T01:07:35.058Z,9.87
2022-09-21T01:10:03.514Z,7.50
2022-09-21T01:12:36.797Z,7.67
2022-09-21T01:15:18.670Z,7.30
2022-09-21T01:17:48.623Z,7.27
2022-09-21T01:20:15.060Z,7.10
2022-09-21T01:22:56.776Z,8.67
2022-09-21T01:25:43.527Z,7.73
2022-09-21T01:28:30.361Z,6.93
2022-09-21T01:30:58.075Z,5.70
2022-09-21T01:33:26.454Z,6.03
2022-09-21T01:35:57.360Z,6.10
2022-09-21T01:38:25.262Z,6.37
2022-09-21T01:40:53.080Z,7.23
2022-09-21T01:43:25.441Z,10.57
2022-09-21T01:45:52.566Z,5.80
2022-09-21T01:48:19.131Z,6.63
2022-09-21T01:50:46.954Z,5.37
2022-09-21T01:53:16.402Z,7.07
2022-09-21T01:55:43.923Z,6.43
2022-09-21T01:58:15.291Z,6.87
2022-09-21T02:00:41.771Z,6.03
2022-09-21T02:03:08.857Z,8.27
2022-09-21T02:05:35.278Z,6.03
2022-09-21T02:08:01.816Z,6.67
2022-09-21T02:10:43.044Z,6.30
2022-09-21T02:13:09.507Z,7.07
2022-09-21T02:15:49.775Z,7.37
2022-09-21T02:18:40.896Z,7.97
2022-09-21T02:21:10.914Z,7.73
2022-09-21T02:23:50.092Z,9.30
2022-09-21T02:26:36.815Z,8.57
2022-09-21T02:29:10.192Z,8.43
2022-09-21T02:31:39.005Z,9.27
2022-09-21T02:34:10.546Z,10.07
2022-09-21T02:36:36.986Z,9.23
2022-09-21T02:39:05.264Z,9.33
2022-09-21T02:41:40.952Z,9.13
2022-09-21T02:44:09.889Z,10.00
2022-09-21T02:46:59.323Z,8.10
2022-09-21T02:49:31.555Z,7.60
2022-09-21T02:51:58.693Z,9.67
2022-09-21T02:54:27.382Z,9.40
2022-09-21T02:56:54.118Z,8.43
2022-09-21T02:59:22.659Z,8.83
2022-09-21T03:01:49.402Z,10.53
2022-09-21T03:04:16.461Z,11.63
2022-09-21T03:06:43.015Z,11.17
2022-09-21T03:09:09.576Z,9.50
2022-09-21T03:11:39.258Z,10.67
2022-09-21T03:14:08.504Z,11.63
2022-09-21T03:16:35.514Z,12.90
2022-09-21T03:19:01.963Z,12.60
2022-09-21T03:21:29.315Z,15.03
2022-09-21T03:23:55.769Z,13.43
2022-09-21T03:26:22.431Z,18.37
2022-09-21T03:28:49.699Z,14.83
2022-09-21T03:31:16.153Z,20.03
2022-09-21T03:33:42.643Z,14.73
2022-09-21T03:36:09.206Z,16.80
2022-09-21T03:38:36.514Z,15.90
2022-09-21T03:41:03.003Z,16.23
2022-09-21T03:43:29.417Z,18.00
2022-09-21T03:45:55.954Z,17.43
2022-09-21T03:48:22.578Z,17.63
2022-09-21T03:50:49.112Z,16.33
2022-09-21T03:53:15.598Z,14.07
2022-09-21T03:55:42.250Z,13.50
2022-09-21T03:58:09.129Z,15.70
2022-09-21T04:00:35.902Z,15.20
2022-09-21T04:03:06.044Z,17.60
2022-09-21T04:05:32.620Z,18.63
2022-09-21T04:07:59.116Z,17.30
2022-09-21T04:10:29.391Z,15.50
2022-09-21T04:13:02.416Z,15.40
2022-09-21T04:15:29.694Z,14.73
2022-09-21T04:17:56.506Z,18.70
2022-09-21T04:20:23.113Z,14.80
2022-09-21T04:22:49.675Z,13.33
2022-09-21T04:25:16.172Z,12.30
2022-09-21T04:27:42.753Z,14.47
2022-09-21T04:30:10.482Z,14.33
2022-09-21T04:32:37.180Z,13.17
2022-09-21T04:35:03.930Z,11.83
2022-09-21T04:37:30.465Z,12.10
2022-09-21T04:39:56.950Z,11.73
2022-09-21T04:42:23.564Z,11.63
2022-09-21T04:44:50.248Z,21.10
2022-09-21T04:47:16.732Z,21.57
2022-09-21T04:49:43.286Z,18.13
2022-09-21T04:52:09.813Z,19.47
2022-09-21T04:54:36.359Z,20.83
2022-09-21T04:57:03.050Z,16.97
2022-09-21T04:59:29.592Z,10.90
2022-09-21T05:01:56.207Z,13.07
2022-09-21T05:04:22.635Z,14.27
2022-09-21T05:06:49.097Z,12.63
2022-09-21T05:09:34.242Z,12.27
2022-09-21T05:12:00.881Z,16.77
2022-09-21T05:14:27.349Z,21.93
2022-09-21T05:16:53.823Z,19.87
2022-09-21T05:19:20.346Z,16.27
2022-09-21T05:21:46.820Z,18.20
2022-09-21T05:24:13.357Z,16.20
2022-09-21T05:26:39.845Z,15.90
2022-09-21T05:29:06.639Z,12.00
2022-09-21T05:31:38.471Z,11.57
2022-09-21T05:34:07.978Z,19.97
2022-09-21T05:36:42.615Z,25.90
2022-09-21T05:39:09.263Z,16.93
2022-09-21T05:41:35.884Z,14.67
2022-09-21T05:44:02.618Z,13.97
2022-09-21T05:46:32.225Z,12.03
2022-09-21T05:49:28.318Z,12.63
2022-09-21T05:51:57.938Z,16.83
2022-09-21T05:54:43.147Z,13.83
2022-09-21T05:57:32.994Z,14.47
2022-09-21T06:00:02.507Z,14.10
2022-09-21T06:02:41.867Z,14.33
2022-09-21T06:05:12.250Z,14.33
2022-09-21T06:07:38.719Z,15.30
2022-09-21T06:10:05.390Z,19.53
2022-09-21T06:12:32.158Z,17.80
2022-09-21T06:14:58.643Z,16.23
2022-09-21T06:17:27.540Z,20.67
2022-09-21T06:19:54.138Z,20.87
2022-09-21T06:22:20.629Z,20.90
2022-09-21T06:24:47.134Z,17.17
2022-09-21T06:27:13.611Z,18.40
2022-09-21T06:29:40.178Z,16.90
2022-09-21T06:32:06.718Z,17.67
2022-09-21T06:34:33.187Z,18.33
2022-09-21T06:36:59.725Z,13.80
2022-09-21T06:39:26.218Z,17.60
2022-09-21T06:41:52.727Z,17.17
2022-09-21T06:44:19.184Z,16.30
2022-09-21T06:46:45.768Z,13.73
2022-09-21T06:49:12.215Z,14.80
2022-09-21T06:51:38.740Z,16.47
2022-09-21T06:54:05.926Z,14.57
2022-09-21T06:56:33.302Z,13.63
2022-09-21T06:58:59.834Z,15.70
2022-09-21T07:01:26.380Z,14.47
2022-09-21T07:03:52.957Z,12.90
2022-09-21T07:06:20.518Z,14.67
2022-09-21T07:11:33.925Z,11.10
2022-09-21T07:14:00.517Z,12.10
2022-09-21T07:16:28.201Z,12.67
2022-09-21T07:18:54.733Z,10.90
2022-09-21T07:21:21.429Z,11.30
2022-09-21T07:23:47.893Z,11.73
2022-09-21T07:26:14.365Z,11.33
2022-09-21T07:28:41.018Z,12.33
2022-09-21T07:31:08.183Z,12.97
2022-09-21T07:33:36.164Z,12.97
2022-09-21T07:36:06.670Z,13.30
2022-09-21T07:38:35.173Z,8.93
2022-09-21T07:41:03.210Z,9.77
2022-09-21T07:43:29.668Z,11.23
2022-09-21T07:45:56.289Z,9.43
2022-09-21T07:48:22.982Z,9.23
2022-09-21T07:50:49.636Z,9.13
2022-09-21T07:53:19.116Z,10.10
2022-09-21T07:55:45.571Z,11.33
2022-09-21T07:58:30.780Z,10.53
2022-09-21T08:00:57.401Z,8.80
2022-09-21T08:03:23.908Z,10.40
2022-09-21T08:05:51.227Z,10.53
2022-09-21T08:08:17.798Z,10.73
2022-09-21T08:10:44.316Z,11.67
2022-09-21T08:13:10.796Z,14.63
2022-09-21T08:15:49.287Z,15.23
2022-09-21T08:18:16.713Z,12.30
2022-09-21T08:20:44.094Z,15.27
2022-09-21T08:23:13.115Z,11.63
2022-09-21T08:25:39.569Z,13.00
2022-09-21T08:28:09.611Z,12.27
2022-09-21T08:30:36.340Z,10.33
2022-09-21T08:33:03.630Z,9.43
2022-09-21T08:35:30.067Z,9.37
2022-09-21T08:37:56.561Z,11.80
2022-09-21T08:40:23.583Z,15.33
2022-09-21T08:42:50.973Z,12.43
2022-09-21T08:45:18.227Z,12.43
2022-09-21T08:47:45.466Z,11.07
2022-09-21T08:50:32.297Z,10.23
2022-09-21T08:53:03.641Z,10.03
2022-09-21T08:55:30.274Z,7.47
2022-09-21T08:57:56.717Z,8.87
2022-09-21T09:00:23.564Z,8.67
2022-09-21T09:02:56.592Z,9.40
2022-09-21T09:05:41.854Z,8.03
2022-09-21T09:08:08.332Z,9.20
2022-09-21T09:10:48.705Z,7.53
2022-09-21T09:13:33.942Z,7.33
2022-09-21T09:16:00.429Z,7.37
2022-09-21T09:18:32.944Z,6.10
2022-09-21T09:21:11.046Z,7.40
2022-09-21T09:23:38.359Z,6.83
2022-09-21T09:26:06.284Z,7.73
2022-09-21T09:28:35.960Z,7.13
2022-09-21T09:31:07.133Z,7.20
2022-09-21T09:33:42.103Z,6.93
2022-09-21T09:36:09.365Z,6.13
2022-09-21T09:38:40.054Z,4.87
2022-09-21T09:41:09.532Z,5.33
2022-09-21T09:43:48.729Z,4.57
2022-09-21T09:46:29.597Z,5.50
2022-09-21T09:49:05.348Z,4.60
2022-09-21T09:51:33.535Z,5.13
2022-09-21T09:54:01.041Z,5.53
2022-09-21T09:56:27.520Z,5.50
2022-09-21T09:58:55.061Z,5.43
2022-09-21T10:01:42.637Z,5.20
2022-09-21T10:04:13.390Z,4.20
2022-09-21T10:06:45.841Z,4.07
2022-09-21T10:09:19.487Z,3.70
2022-09-21T10:11:45.956Z,6.23
2022-09-21T10:14:14.912Z,3.00
2022-09-21T10:16:41.897Z,5.10
2022-09-21T10:19:14.286Z,4.13
2022-09-21T10:21:41.279Z,3.20
2022-09-21T10:24:08.275Z,2.10
2022-09-21T10:26:41.943Z,2.57
2022-09-21T10:29:19.019Z,5.13
2022-09-21T10:32:16.421Z,2.97
2022-09-21T10:35:02.221Z,3.50
2022-09-21T10:37:29.629Z,3.60
2022-09-21T10:39:57.345Z,3.40
2022-09-21T10:42:23.793Z,5.80
2022-09-21T10:44:50.902Z,2.00
2022-09-21T10:47:18.567Z,2.00
2022-09-21T10:49:46.698Z,2.30
2022-09-21T10:52:13.181Z,3.13
2022-09-21T10:54:39.701Z,2.77
2022-09-21T10:57:09.687Z,2.47
2022-09-21T10:59:37.194Z,3.90
2022-09-21T11:02:24.024Z,3.90
2022-09-21T11:04:51.251Z,2.77
2022-09-21T11:07:44.089Z,3.17
2022-09-21T11:10:13.509Z,4.03
2022-09-21T11:12:40.435Z,3.87
2022-09-21T11:15:10.119Z,3.83
2022-09-21T11:17:41.649Z,3.83
2022-09-21T11:20:22.844Z,3.30
2022-09-21T11:22:57.384Z,3.17
2022-09-21T11:25:32.626Z,2.60
2022-09-21T11:28:09.094Z,3.10
2022-09-21T11:30:42.893Z,6.13
2022-09-21T11:33:09.863Z,3.23
2022-09-21T11:35:51.569Z,4.55
2022-09-21T11:38:33.705Z,3.22
2022-09-21T11:41:20.019Z,6.68
2022-09-21T11:43:52.508Z,4.60
2022-09-21T11:46:22.888Z,2.88
2022-09-21T11:48:49.520Z,3.93
2022-09-21T11:51:29.535Z,2.88
2022-09-21T11:53:57.847Z,4.90
2022-09-21T11:56:47.589Z,3.08
2022-09-21T11:59:17.073Z,5.50
2022-09-21T12:01:46.644Z,4.18
2022-09-21T12:04:20.111Z,2.45
2022-09-21T12:06:54.099Z,4.95
2022-09-21T12:09:23.625Z,2.75
2022-09-21T12:11:51.869Z,5.05
2022-09-21T12:14:22.653Z,3.20
2022-09-21T12:16:49.213Z,4.18
2022-09-21T12:19:18.695Z,3.90
2022-09-21T12:21:49.210Z,2.60
2022-09-21T12:24:22.950Z,2.67
2022-09-21T12:26:50.571Z,2.60
2022-09-21T12:29:19.093Z,2.78
2022-09-21T12:32:15.433Z,2.45
2022-09-21T12:34:42.636Z,2.92
2022-09-21T12:37:15.207Z,3.67
2022-09-21T12:39:43.370Z,2.22
2022-09-21T12:42:33.274Z,2.28
2022-09-21T12:45:01.743Z,3.75
2022-09-21T12:47:37.753Z,5.75
2022-09-21T12:50:06.606Z,2.55
2022-09-21T12:52:33.345Z,2.78
2022-09-21T12:55:02.513Z,2.38
2022-09-21T12:58:10.875Z,2.33
2022-09-21T13:00:39.600Z,5.50
2022-09-21T13:03:17.303Z,2.63
2022-09-21T13:05:49.733Z,3.20
2022-09-21T13:08:21.527Z,4.57
2022-09-21T13:11:00.763Z,2.13
2022-09-21T13:13:29.066Z,1.60
2022-09-21T13:15:55.602Z,5.60
2022-09-21T13:18:35.145Z,3.20
2022-09-21T13:21:14.182Z,4.00
2022-09-21T13:23:42.425Z,2.97
2022-09-21T13:26:10.121Z,2.05
2022-09-21T13:28:55.007Z,1.88
2022-09-21T13:31:41.403Z,5.05
2022-09-21T13:34:17.299Z,1.33
2022-09-21T13:36:43.897Z,1.80
2022-09-21T13:39:17.665Z,2.75
2022-09-21T13:42:02.452Z,2.13
2022-09-21T13:44:41.048Z,2.55
2022-09-21T13:47:08.509Z,2.17
2022-09-21T13:49:45.315Z,1.85
2022-09-21T13:52:15.918Z,2.78
2022-09-21T13:54:45.463Z,1.58
2022-09-21T13:57:16.498Z,1.67
2022-09-21T13:59:43.756Z,3.47
2022-09-21T14:02:23.107Z,3.63
2022-09-21T14:04:50.204Z,5.30
2022-09-21T14:07:16.646Z,3.83
2022-09-21T14:09:52.531Z,1.50
2022-09-21T14:12:19.875Z,1.60
2022-09-21T14:15:06.307Z,1.33
2022-09-21T14:17:36.812Z,1.95
2022-09-21T14:20:04.125Z,1.10
2022-09-21T14:22:34.295Z,1.70
2022-09-21T14:25:24.479Z,2.58
2022-09-21T14:27:53.533Z,3.25
2022-09-21T14:30:21.195Z,3.28
2022-09-21T14:32:59.815Z,1.70
2022-09-21T14:35:38.635Z,2.75
2022-09-21T14:38:08.083Z,3.10
2022-09-21T14:40:44.397Z,3.67
2022-09-21T14:43:12.509Z,2.83
2022-09-21T14:45:45.151Z,3.58
2022-09-21T14:48:30.989Z,6.38
2022-09-21T14:51:00.502Z,7.20
2022-09-21T14:53:39.368Z,4.22
2022-09-21T14:56:06.323Z,4.78
2022-09-21T14:58:32.753Z,4.68
2022-09-21T15:01:15.546Z,6.70
2022-09-21T15:03:49.078Z,3.15
2022-09-21T15:06:38.086Z,0.85
2022-09-21T15:09:42.356Z,1.23
2022-09-21T15:12:11.668Z,3.20
2022-09-21T15:14:40.874Z,1.52
2022-09-21T15:17:24.334Z,1.23
2022-09-21T15:19:50.905Z,1.95
2022-09-21T15:22:21.095Z,1.83
2022-09-21T15:24:51.712Z,1.30
2022-09-21T15:27:18.522Z,2.00
2022-09-21T15:29:47.677Z,2.28
2022-09-21T15:32:20.325Z,1.92
2022-09-21T15:34:46.746Z,1.20
2022-09-21T15:37:17.483Z,2.80
2022-09-21T15:39:44.074Z,1.08
2022-09-21T15:42:10.687Z,3.42
2022-09-21T15:44:37.653Z,2.28
2022-09-21T15:47:04.666Z,6.07
2022-09-21T15:49:31.258Z,3.58
2022-09-21T15:52:12.998Z,2.97
2022-09-21T15:54:44.279Z,3.72
2022-09-21T15:57:25.473Z,4.22
2022-09-21T15:59:52.002Z,3.90
2022-09-21T16:02:20.479Z,4.07
2022-09-21T16:04:50.181Z,6.32
2022-09-21T16:07:29.762Z,4.60
2022-09-21T16:09:56.454Z,4.82
2022-09-21T16:12:26.087Z,4.75
2022-09-21T16:15:03.883Z,5.40
2022-09-21T16:17:35.464Z,4.88
2022-09-21T16:20:10.759Z,3.90
2022-09-21T16:22:37.926Z,3.85
2022-09-21T16:25:13.779Z,4.53
2022-09-21T16:27:40.201Z,5.95
2022-09-21T16:30:06.939Z,4.60
2022-09-21T16:32:33.881Z,4.85
2022-09-21T16:35:18.637Z,5.10
2022-09-21T16:37:45.118Z,5.30
2022-09-21T16:40:11.895Z,5.95
2022-09-21T16:42:38.542Z,9.32
2022-09-21T16:45:11.143Z,6.78
2022-09-21T16:47:37.777Z,9.15
2022-09-21T16:50:06.769Z,16.20
2022-09-21T16:52:33.275Z,8.63
2022-09-21T16:55:02.597Z,9.13
2022-09-21T16:57:29.157Z,10.23
2022-09-21T16:59:55.675Z,10.52
2022-09-21T17:02:22.588Z,9.30
2022-09-21T17:04:49.220Z,8.60
2022-09-21T17:07:15.801Z,9.95
2022-09-21T17:09:47.995Z,11.52
2022-09-21T17:12:15.659Z,9.73
2022-09-21T17:14:46.764Z,10.65
2022-09-21T17:17:20.411Z,10.52
2022-09-21T17:19:47.178Z,10.70
2022-09-21T17:22:19.712Z,9.25
2022-09-21T17:24:50.826Z,10.30
2022-09-21T17:27:18.971Z,8.90
2022-09-21T17:29:49.717Z,10.07
2022-09-21T17:32:18.582Z,9.40
2022-09-21T17:34:46.340Z,9.68
2022-09-21T17:37:13.125Z,9.55
2022-09-21T17:39:39.610Z,8.20
2022-09-21T17:42:19.134Z,8.47
2022-09-21T17:44:59.675Z,8.77
2022-09-21T17:47:29.485Z,9.13
2022-09-21T17:50:06.544Z,10.10
2022-09-21T17:52:51.742Z,9.02
2022-09-21T17:55:18.504Z,10.55
2022-09-21T17:57:55.930Z,10.05
2022-09-21T18:00:23.744Z,9.95
2022-09-21T18:02:50.456Z,14.63
2022-09-21T18:05:26.927Z,13.48
2022-09-21T18:07:53.590Z,17.83
2022-09-21T18:10:21.332Z,18.70
2022-09-21T18:12:51.377Z,18.98
2022-09-21T18:15:23.067Z,22.27
2022-09-21T18:17:55.930Z,27.50
2022-09-21T18:20:41.829Z,25.83
2022-09-21T18:23:27.095Z,26.57
2022-09-21T18:25:55.109Z,22.07
2022-09-21T18:28:23.826Z,19.57
2022-09-21T18:30:59.565Z,23.00
2022-09-21T18:33:29.215Z,19.87
2022-09-21T18:36:00.747Z,19.77
2022-09-21T18:38:28.182Z,19.20
2022-09-21T18:41:13.775Z,21.65
2022-09-21T18:43:40.267Z,16.27
2022-09-21T18:46:10.462Z,17.57
2022-09-21T18:48:48.543Z,18.33
2022-09-21T18:51:31.446Z,15.90
2022-09-21T18:53:58.372Z,13.77
2022-09-21T18:56:25.945Z,16.63
2022-09-21T18:58:52.682Z,17.43
2022-09-21T19:01:22.143Z,20.90
2022-09-21T19:03:49.928Z,49.30
2022-09-21T19:06:26.456Z,80.33
2022-09-21T19:09:08.398Z,55.93
2022-09-21T19:11:38.351Z,35.63
2022-09-21T19:14:07.300Z,24.00
2022-09-21T19:16:35.173Z,22.63
2022-09-21T19:19:09.142Z,21.00
2022-09-21T19:21:45.905Z,21.20
2022-09-21T19:24:18.722Z,23.90
2022-09-21T19:26:56.073Z,24.00
2022-09-21T19:29:25.724Z,23.67
2022-09-21T19:31:52.266Z,24.43
2022-09-21T19:34:19.175Z,27.55
2022-09-21T19:36:47.361Z,22.97
2022-09-21T19:39:14.136Z,24.70
2022-09-21T19:41:43.114Z,30.35
2022-09-21T19:44:10.070Z,35.67
2022-09-21T19:46:39.573Z,32.70
2022-09-21T19:49:14.354Z,32.03
2022-09-21T19:51:43.006Z,36.63
2022-09-21T19:54:29.191Z,42.60
2022-09-21T19:57:14.517Z,38.38
2022-09-21T19:59:44.010Z,40.77
2022-09-21T20:02:13.653Z,53.23
2022-09-21T20:04:47.240Z,47.50
2022-09-21T20:07:18.983Z,38.20
2022-09-21T20:09:46.079Z,32.60
2022-09-21T20:12:22.062Z,30.67
2022-09-21T20:14:50.718Z,31.40
2022-09-21T20:17:22.200Z,31.10
2022-09-21T20:19:51.745Z,24.70
2022-09-21T20:22:19.727Z,28.97
2022-09-21T20:24:49.577Z,24.63
2022-09-21T20:27:26.052Z,28.77
2022-09-21T20:29:52.513Z,28.53
2022-09-21T20:32:19.067Z,32.67
2022-09-21T20:34:45.580Z,35.77
2022-09-21T20:37:13.130Z,32.73
2022-09-21T20:39:39.860Z,34.73
2022-09-21T20:42:06.392Z,31.50
2022-09-21T20:44:32.954Z,32.20
2022-09-21T20:46:59.718Z,28.67
2022-09-21T20:49:46.633Z,31.30
2022-09-21T20:52:16.080Z,31.83
2022-09-21T20:54:48.310Z,35.65
2022-09-21T20:57:16.107Z,35.33
2022-09-21T20:59:42.569Z,36.47
2022-09-21T21:02:12.730Z,39.87
2022-09-21T21:04:39.402Z,33.60
2022-09-21T21:07:06.245Z,38.43
2022-09-21T21:09:32.918Z,37.03
2022-09-21T21:11:59.459Z,34.03
2022-09-21T21:14:30.056Z,34.60
2022-09-21T21:16:56.603Z,34.63
2022-09-21T21:19:23.426Z,33.50
2022-09-21T21:21:50.009Z,32.13
2022-09-21T21:24:48.999Z,30.23
2022-09-21T21:27:16.695Z,31.77
2022-09-21T21:29:44.136Z,35.50
2022-09-21T21:32:10.724Z,34.07
2022-09-21T21:34:37.516Z,34.80
2022-09-21T21:37:04.411Z,35.40
2022-09-21T21:39:30.958Z,33.83
2022-09-21T21:41:57.535Z,34.40
2022-09-21T21:44:23.999Z,34.70
2022-09-21T21:46:51.670Z,41.33
2022-09-21T21:49:18.229Z,38.70
2022-09-21T21:51:44.822Z,36.17
2022-09-21T21:54:11.565Z,39.80
2022-09-21T21:56:38.032Z,38.37
2022-09-21T21:59:05.093Z,43.27
2022-09-21T22:01:31.640Z,36.27
2022-09-21T22:04:00.180Z,32.77
2022-09-21T22:06:26.967Z,34.33
2022-09-21T22:08:53.504Z,32.40
2022-09-21T22:11:20.117Z,28.63
2022-09-21T22:13:46.623Z,28.83
2022-09-21T22:16:14.542Z,29.23
2022-09-21T22:18:41.022Z,28.53
2022-09-21T22:21:11.735Z,25.43
2022-09-21T22:23:38.273Z,29.30
2022-09-21T22:26:15.546Z,23.80
2022-09-21T22:28:43.010Z,23.87
2022-09-21T22:31:11.499Z,23.67
2022-09-21T22:33:38.095Z,23.13
2022-09-21T22:36:08.518Z,23.97
2022-09-21T22:38:41.934Z,22.20
2022-09-21T22:41:10.172Z,24.13
2022-09-21T22:43:36.833Z,25.07
2022-09-21T22:46:04.282Z,20.23
2022-09-21T22:48:30.800Z,20.47
2022-09-21T22:50:57.337Z,20.13
2022-09-21T22:53:24.092Z,20.53
2022-09-21T22:56:05.156Z,21.97
2022-09-21T22:58:35.190Z,23.97
2022-09-21T23:01:14.821Z,23.10
2022-09-21T23:03:41.814Z,26.00
2022-09-21T23:06:09.459Z,26.23
2022-09-21T23:08:36.111Z,23.53
2022-09-21T23:11:13.371Z,23.90
2022-09-21T23:13:39.907Z,22.73
2022-09-21T23:16:07.180Z,21.60
2022-09-21T23:18:33.893Z,25.87
2022-09-21T23:21:00.998Z,24.27
2022-09-21T23:23:28.284Z,21.87
2022-09-21T23:26:14.240Z,20.00
2022-09-21T23:28:41.949Z,20.30
2022-09-21T23:31:09.266Z,22.03
2022-09-21T23:33:36.445Z,25.03
2022-09-21T23:36:03.241Z,23.57
2022-09-21T23:38:29.827Z,20.63
2022-09-21T23:41:02.882Z,20.17
2022-09-21T23:43:29.350Z,22.30
2022-09-21T23:45:55.881Z,21.03
2022-09-21T23:48:22.385Z,20.53
2022-09-21T23:50:48.823Z,22.63
2022-09-21T23:53:15.334Z,24.33
2022-09-21T23:55:41.832Z,24.80
2022-09-21T23:58:08.302Z,20.40
